sensor_id;sensor_type;location;lat;lon;timestamp;pressure;altitude;pressure_sealevel;temperature;humidity
38267;BME280;24063;51.794;19.578;2023-01-04T00:00:38;99687.38;;;1.17;100.00
38267;BME280;24063;51.794;19.578;2023-01-04T00:01:59;99683.62;;;1.18;100.00
38267;BME280;24063;51.794;19.578;2023-01-04T00:03:02;99686.91;;;1.19;100.00
38267;BME280;24063;51.794;19.578;2023-01-04T00:04:05;99686.89;;;1.21;100.00
38267;BME280;24063;51.794;19.578;2023-01-04T00:05:08;99693.52;;;1.23;100.00
38267;BME280;24063;51.794;19.578;2023-01-04T00:06:14;99683.98;;;1.24;100.00
38267;BME280;24063;51.794;19.578;2023-01-04T00:07:17;99682.45;;;1.26;100.00
38267;BME280;24063;51.794;19.578;2023-01-04T00:08:19;99687.27;;;1.30;100.00
38267;BME280;24063;51.794;19.578;2023-01-04T00:09:22;99688.48;;;1.34;100.00
38267;BME280;24063;51.794;19.578;2023-01-04T00:10:24;99683.07;;;1.36;100.00
38267;BME280;24063;51.794;19.578;2023-01-04T00:11:27;99684.30;;;1.38;100.00
38267;BME280;24063;51.794;19.578;2023-01-04T00:12:28;99679.88;;;1.39;100.00
38267;BME280;24063;51.794;19.578;2023-01-04T00:13:31;99679.85;;;1.40;100.00
38267;BME280;24063;51.794;19.578;2023-01-04T00:14:33;99680.38;;;1.42;100.00
38267;BME280;24063;51.794;19.578;2023-01-04T00:15:35;99674.81;;;1.44;100.00
38267;BME280;24063;51.794;19.578;2023-01-04T00:16:40;99675.23;;;1.45;100.00
38267;BME280;24063;51.794;19.578;2023-01-04T00:17:42;99676.50;;;1.44;100.00
38267;BME280;24063;51.794;19.578;2023-01-04T00:18:45;99677.48;;;1.44;100.00
38267;BME280;24063;51.794;19.578;2023-01-04T00:19:47;99679.16;;;1.44;100.00
38267;BME280;24063;51.794;19.578;2023-01-04T00:20:48;99679.42;;;1.45;100.00
38267;BME280;24063;51.794;19.578;2023-01-04T00:21:50;99680.39;;;1.46;100.00
38267;BME280;24063;51.794;19.578;2023-01-04T00:22:52;99682.34;;;1.46;100.00
38267;BME280;24063;51.794;19.578;2023-01-04T00:23:57;99684.60;;;1.48;100.00
38267;BME280;24063;51.794;19.578;2023-01-04T00:24:59;99689.13;;;1.50;100.00
38267;BME280;24063;51.794;19.578;2023-01-04T00:26:05;99686.21;;;1.52;100.00
38267;BME280;24063;51.794;19.578;2023-01-04T00:27:07;99684.66;;;1.55;100.00
38267;BME280;24063;51.794;19.578;2023-01-04T00:28:09;99684.46;;;1.58;100.00
38267;BME280;24063;51.794;19.578;2023-01-04T00:29:12;99687.45;;;1.61;100.00
38267;BME280;24063;51.794;19.578;2023-01-04T00:30:15;99683.23;;;1.63;100.00
38267;BME280;24063;51.794;19.578;2023-01-04T00:31:17;99682.36;;;1.65;100.00
38267;BME280;24063;51.794;19.578;2023-01-04T00:32:19;99683.02;;;1.65;100.00
38267;BME280;24063;51.794;19.578;2023-01-04T00:33:21;99681.10;;;1.66;100.00
38267;BME280;24063;51.794;19.578;2023-01-04T00:34:23;99683.34;;;1.68;100.00
38267;BME280;24063;51.794;19.578;2023-01-04T00:35:25;99684.79;;;1.71;100.00
38267;BME280;24063;51.794;19.578;2023-01-04T00:36:46;99684.23;;;1.73;100.00
38267;BME280;24063;51.794;19.578;2023-01-04T00:37:48;99681.78;;;1.74;100.00
38267;BME280;24063;51.794;19.578;2023-01-04T00:38:54;99682.50;;;1.76;100.00
38267;BME280;24063;51.794;19.578;2023-01-04T00:40:10;99687.02;;;1.80;100.00
38267;BME280;24063;51.794;19.578;2023-01-04T00:41:12;99686.83;;;1.82;100.00
38267;BME280;24063;51.794;19.578;2023-01-04T00:42:34;99693.73;;;1.85;100.00
38267;BME280;24063;51.794;19.578;2023-01-04T00:43:39;99692.88;;;1.86;100.00
38267;BME280;24063;51.794;19.578;2023-01-04T00:44:43;99691.30;;;1.87;100.00
38267;BME280;24063;51.794;19.578;2023-01-04T00:45:45;99692.17;;;1.88;100.00
38267;BME280;24063;51.794;19.578;2023-01-04T00:46:47;99692.30;;;1.91;100.00
38267;BME280;24063;51.794;19.578;2023-01-04T00:47:49;99687.52;;;1.91;100.00
38267;BME280;24063;51.794;19.578;2023-01-04T00:48:56;99686.54;;;1.93;100.00
38267;BME280;24063;51.794;19.578;2023-01-04T00:50:01;99685.83;;;1.94;100.00
38267;BME280;24063;51.794;19.578;2023-01-04T00:51:04;99679.47;;;1.95;100.00
38267;BME280;24063;51.794;19.578;2023-01-04T00:52:06;99681.85;;;1.96;100.00
38267;BME280;24063;51.794;19.578;2023-01-04T00:53:09;99684.44;;;1.97;100.00
38267;BME280;24063;51.794;19.578;2023-01-04T00:54:14;99683.27;;;1.98;100.00
38267;BME280;24063;51.794;19.578;2023-01-04T00:55:16;99682.40;;;1.97;100.00
38267;BME280;24063;51.794;19.578;2023-01-04T00:56:18;99678.66;;;1.97;100.00
38267;BME280;24063;51.794;19.578;2023-01-04T00:57:20;99682.03;;;1.97;100.00
38267;BME280;24063;51.794;19.578;2023-01-04T00:58:22;99683.10;;;1.98;100.00
38267;BME280;24063;51.794;19.578;2023-01-04T00:59:24;99682.52;;;1.96;100.00
38267;BME280;24063;51.794;19.578;2023-01-04T01:00:26;99680.99;;;1.95;100.00
38267;BME280;24063;51.794;19.578;2023-01-04T01:01:30;99684.00;;;1.93;100.00
38267;BME280;24063;51.794;19.578;2023-01-04T01:02:32;99686.08;;;1.91;100.00
38267;BME280;24063;51.794;19.578;2023-01-04T01:03:35;99685.77;;;1.88;100.00
38267;BME280;24063;51.794;19.578;2023-01-04T01:04:39;99685.15;;;1.88;100.00
38267;BME280;24063;51.794;19.578;2023-01-04T01:05:41;99688.55;;;1.88;100.00
38267;BME280;24063;51.794;19.578;2023-01-04T01:06:43;99689.28;;;1.86;100.00
38267;BME280;24063;51.794;19.578;2023-01-04T01:07:45;99692.34;;;1.84;100.00
38267;BME280;24063;51.794;19.578;2023-01-04T01:08:47;99692.23;;;1.82;100.00
38267;BME280;24063;51.794;19.578;2023-01-04T01:09:49;99694.13;;;1.82;100.00
38267;BME280;24063;51.794;19.578;2023-01-04T01:28:23;99688.65;;;1.54;100.00
38267;BME280;24063;51.794;19.578;2023-01-04T01:29:26;99690.77;;;1.54;100.00
38267;BME280;24063;51.794;19.578;2023-01-04T01:30:30;99691.55;;;1.54;100.00
38267;BME280;24063;51.794;19.578;2023-01-04T01:31:33;99690.57;;;1.54;100.00
38267;BME280;24063;51.794;19.578;2023-01-04T01:33:56;99690.42;;;1.56;100.00
38267;BME280;24063;51.794;19.578;2023-01-04T01:34:59;99688.98;;;1.56;100.00
38267;BME280;24063;51.794;19.578;2023-01-04T01:36:04;99686.54;;;1.56;100.00
38267;BME280;24063;51.794;19.578;2023-01-04T01:37:06;99684.94;;;1.56;100.00
38267;BME280;24063;51.794;19.578;2023-01-04T01:38:09;99684.60;;;1.57;100.00
38267;BME280;24063;51.794;19.578;2023-01-04T01:39:12;99682.08;;;1.58;100.00
38267;BME280;24063;51.794;19.578;2023-01-04T01:40:15;99680.33;;;1.58;100.00
38267;BME280;24063;51.794;19.578;2023-01-04T01:41:30;99679.26;;;1.58;100.00
38267;BME280;24063;51.794;19.578;2023-01-04T01:42:33;99679.23;;;1.60;100.00
38267;BME280;24063;51.794;19.578;2023-01-04T01:43:55;99679.48;;;1.61;100.00
38267;BME280;24063;51.794;19.578;2023-01-04T01:45:01;99682.60;;;1.60;100.00
38267;BME280;24063;51.794;19.578;2023-01-04T01:46:04;99678.27;;;1.61;100.00
38267;BME280;24063;51.794;19.578;2023-01-04T01:47:20;99678.30;;;1.60;100.00
38267;BME280;24063;51.794;19.578;2023-01-04T01:48:28;99686.27;;;1.59;100.00
38267;BME280;24063;51.794;19.578;2023-01-04T01:49:35;99683.64;;;1.57;100.00
38267;BME280;24063;51.794;19.578;2023-01-04T01:50:53;99686.46;;;1.57;100.00
38267;BME280;24063;51.794;19.578;2023-01-04T01:52:03;99688.67;;;1.57;100.00
38267;BME280;24063;51.794;19.578;2023-01-04T01:53:09;99682.77;;;1.57;100.00
38267;BME280;24063;51.794;19.578;2023-01-04T01:54:19;99682.86;;;1.58;100.00
38267;BME280;24063;51.794;19.578;2023-01-04T01:55:23;99684.34;;;1.59;100.00
38267;BME280;24063;51.794;19.578;2023-01-04T01:56:28;99681.77;;;1.60;100.00
38267;BME280;24063;51.794;19.578;2023-01-04T01:57:37;99684.58;;;1.61;100.00
38267;BME280;24063;51.794;19.578;2023-01-04T01:58:45;99684.80;;;1.61;100.00
38267;BME280;24063;51.794;19.578;2023-01-04T01:59:55;99687.20;;;1.60;100.00
38267;BME280;24063;51.794;19.578;2023-01-04T02:00:59;99681.84;;;1.62;100.00
38267;BME280;24063;51.794;19.578;2023-01-04T02:02:03;99678.58;;;1.64;100.00
38267;BME280;24063;51.794;19.578;2023-01-04T02:03:16;99681.36;;;1.65;100.00
38267;BME280;24063;51.794;19.578;2023-01-04T02:04:20;99682.08;;;1.67;100.00
38267;BME280;24063;51.794;19.578;2023-01-04T02:05:24;99683.17;;;1.68;100.00
38267;BME280;24063;51.794;19.578;2023-01-04T02:06:33;99680.29;;;1.68;100.00
38267;BME280;24063;51.794;19.578;2023-01-04T02:07:39;99681.46;;;1.69;100.00
38267;BME280;24063;51.794;19.578;2023-01-04T02:08:42;99676.92;;;1.68;100.00
38267;BME280;24063;51.794;19.578;2023-01-04T02:09:48;99674.97;;;1.68;100.00
38267;BME280;24063;51.794;19.578;2023-01-04T02:10:51;99671.50;;;1.69;100.00
38267;BME280;24063;51.794;19.578;2023-01-04T02:11:54;99666.13;;;1.71;100.00
38267;BME280;24063;51.794;19.578;2023-01-04T02:12:58;99664.72;;;1.74;100.00
38267;BME280;24063;51.794;19.578;2023-01-04T02:14:04;99663.86;;;1.75;100.00
38267;BME280;24063;51.794;19.578;2023-01-04T02:15:34;99662.20;;;1.76;100.00
38267;BME280;24063;51.794;19.578;2023-01-04T02:18:03;99661.54;;;1.75;100.00
38267;BME280;24063;51.794;19.578;2023-01-04T02:42:57;99646.67;;;1.33;100.00
38267;BME280;24063;51.794;19.578;2023-01-04T02:44:24;99641.76;;;1.29;100.00
38267;BME280;24063;51.794;19.578;2023-01-04T02:45:58;99644.75;;;1.25;100.00
38267;BME280;24063;51.794;19.578;2023-01-04T02:47:36;99652.92;;;1.21;100.00
38267;BME280;24063;51.794;19.578;2023-01-04T02:49:02;99646.16;;;1.12;100.00
38267;BME280;24063;51.794;19.578;2023-01-04T02:51:01;99638.58;;;1.05;100.00
38267;BME280;24063;51.794;19.578;2023-01-04T02:52:07;99635.14;;;1.01;100.00
38267;BME280;24063;51.794;19.578;2023-01-04T02:53:23;99627.93;;;0.98;100.00
38267;BME280;24063;51.794;19.578;2023-01-04T02:54:29;99623.95;;;0.93;100.00
38267;BME280;24063;51.794;19.578;2023-01-04T02:55:48;99620.21;;;0.91;100.00
38267;BME280;24063;51.794;19.578;2023-01-04T02:57:19;99617.83;;;0.89;100.00
38267;BME280;24063;51.794;19.578;2023-01-04T02:58:35;99626.16;;;0.86;100.00
38267;BME280;24063;51.794;19.578;2023-01-04T03:01:36;99621.96;;;0.81;100.00
38267;BME280;24063;51.794;19.578;2023-01-04T03:03:17;99619.95;;;0.77;100.00
38267;BME280;24063;51.794;19.578;2023-01-04T03:06:34;99624.14;;;0.69;100.00
38267;BME280;24063;51.794;19.578;2023-01-04T03:09:18;99613.05;;;0.63;100.00
38267;BME280;24063;51.794;19.578;2023-01-04T03:10:33;99608.43;;;0.62;100.00
38267;BME280;24063;51.794;19.578;2023-01-04T03:11:47;99608.31;;;0.60;100.00
38267;BME280;24063;51.794;19.578;2023-01-04T03:13:28;99603.66;;;0.57;100.00
38267;BME280;24063;51.794;19.578;2023-01-04T03:14:42;99597.92;;;0.56;100.00
38267;BME280;24063;51.794;19.578;2023-01-04T03:15:52;99597.17;;;0.55;100.00
38267;BME280;24063;51.794;19.578;2023-01-04T03:16:55;99597.40;;;0.55;100.00
38267;BME280;24063;51.794;19.578;2023-01-04T03:18:15;99592.05;;;0.52;100.00
38267;BME280;24063;51.794;19.578;2023-01-04T03:19:23;99591.08;;;0.48;100.00
38267;BME280;24063;51.794;19.578;2023-01-04T03:21:31;99590.10;;;0.43;100.00
38267;BME280;24063;51.794;19.578;2023-01-04T03:22:37;99586.77;;;0.42;100.00
38267;BME280;24063;51.794;19.578;2023-01-04T03:24:03;99587.85;;;0.37;100.00
38267;BME280;24063;51.794;19.578;2023-01-04T03:25:34;99584.36;;;0.30;100.00
38267;BME280;24063;51.794;19.578;2023-01-04T03:27:04;99582.75;;;0.26;100.00
38267;BME280;24063;51.794;19.578;2023-01-04T03:28:30;99583.77;;;0.24;100.00
38267;BME280;24063;51.794;19.578;2023-01-04T03:30:03;99583.55;;;0.21;100.00
38267;BME280;24063;51.794;19.578;2023-01-04T03:31:33;99588.58;;;0.16;100.00
38267;BME280;24063;51.794;19.578;2023-01-04T03:33:06;99583.92;;;0.12;100.00
38267;BME280;24063;51.794;19.578;2023-01-04T03:34:29;99576.80;;;0.09;100.00
38267;BME280;24063;51.794;19.578;2023-01-04T03:36:26;99569.94;;;0.05;100.00
38267;BME280;24063;51.794;19.578;2023-01-04T03:38:53;99567.81;;;-0.02;100.00
38267;BME280;24063;51.794;19.578;2023-01-04T03:40:28;99564.27;;;-0.06;100.00
38267;BME280;24063;51.794;19.578;2023-01-04T03:42:00;99570.38;;;-0.11;100.00
38267;BME280;24063;51.794;19.578;2023-01-04T03:43:33;99576.83;;;-0.16;100.00
38267;BME280;24063;51.794;19.578;2023-01-04T03:45:15;99574.73;;;-0.21;100.00
38267;BME280;24063;51.794;19.578;2023-01-04T03:46:51;99568.30;;;-0.24;100.00
38267;BME280;24063;51.794;19.578;2023-01-04T03:48:40;99566.32;;;-0.28;100.00
38267;BME280;24063;51.794;19.578;2023-01-04T03:50:09;99570.56;;;-0.31;100.00
38267;BME280;24063;51.794;19.578;2023-01-04T03:51:18;99569.02;;;-0.34;100.00
38267;BME280;24063;51.794;19.578;2023-01-04T03:52:26;99567.89;;;-0.37;100.00
38267;BME280;24063;51.794;19.578;2023-01-04T03:53:37;99565.20;;;-0.40;100.00
38267;BME280;24063;51.794;19.578;2023-01-04T03:54:47;99562.63;;;-0.42;100.00
38267;BME280;24063;51.794;19.578;2023-01-04T03:55:51;99561.98;;;-0.44;100.00
38267;BME280;24063;51.794;19.578;2023-01-04T03:56:56;99559.21;;;-0.46;100.00
38267;BME280;24063;51.794;19.578;2023-01-04T03:57:59;99558.66;;;-0.47;100.00
38267;BME280;24063;51.794;19.578;2023-01-04T03:59:01;99559.90;;;-0.49;100.00
38267;BME280;24063;51.794;19.578;2023-01-04T04:00:16;99562.50;;;-0.50;100.00
38267;BME280;24063;51.794;19.578;2023-01-04T04:01:20;99560.15;;;-0.51;100.00
38267;BME280;24063;51.794;19.578;2023-01-04T04:02:28;99560.66;;;-0.52;100.00
38267;BME280;24063;51.794;19.578;2023-01-04T04:03:31;99555.76;;;-0.54;100.00
38267;BME280;24063;51.794;19.578;2023-01-04T04:04:51;99553.35;;;-0.55;100.00
38267;BME280;24063;51.794;19.578;2023-01-04T04:06:11;99551.86;;;-0.56;100.00
38267;BME280;24063;51.794;19.578;2023-01-04T04:07:32;99548.36;;;-0.56;100.00
38267;BME280;24063;51.794;19.578;2023-01-04T04:08:52;99549.70;;;-0.59;100.00
38267;BME280;24063;51.794;19.578;2023-01-04T04:09:54;99545.22;;;-0.60;100.00
38267;BME280;24063;51.794;19.578;2023-01-04T04:10:58;99548.42;;;-0.61;100.00
38267;BME280;24063;51.794;19.578;2023-01-04T04:12:19;99545.21;;;-0.61;100.00
38267;BME280;24063;51.794;19.578;2023-01-04T04:13:22;99547.83;;;-0.61;100.00
38267;BME280;24063;51.794;19.578;2023-01-04T04:14:25;99547.70;;;-0.61;100.00
38267;BME280;24063;51.794;19.578;2023-01-04T04:15:26;99545.99;;;-0.60;100.00
38267;BME280;24063;51.794;19.578;2023-01-04T04:16:29;99544.73;;;-0.60;100.00
38267;BME280;24063;51.794;19.578;2023-01-04T04:17:31;99544.52;;;-0.60;100.00
38267;BME280;24063;51.794;19.578;2023-01-04T04:18:32;99540.52;;;-0.61;100.00
38267;BME280;24063;51.794;19.578;2023-01-04T04:19:34;99543.09;;;-0.60;100.00
38267;BME280;24063;51.794;19.578;2023-01-04T04:20:36;99540.11;;;-0.60;100.00
38267;BME280;24063;51.794;19.578;2023-01-04T04:21:38;99539.62;;;-0.60;100.00
38267;BME280;24063;51.794;19.578;2023-01-04T04:22:41;99537.47;;;-0.60;100.00
38267;BME280;24063;51.794;19.578;2023-01-04T04:23:42;99537.05;;;-0.60;100.00
38267;BME280;24063;51.794;19.578;2023-01-04T04:24:45;99535.02;;;-0.59;100.00
38267;BME280;24063;51.794;19.578;2023-01-04T04:25:46;99535.84;;;-0.58;100.00
38267;BME280;24063;51.794;19.578;2023-01-04T04:26:49;99533.14;;;-0.58;100.00
38267;BME280;24063;51.794;19.578;2023-01-04T04:27:51;99533.92;;;-0.55;100.00
38267;BME280;24063;51.794;19.578;2023-01-04T04:28:53;99533.72;;;-0.55;100.00
38267;BME280;24063;51.794;19.578;2023-01-04T04:29:55;99530.25;;;-0.54;100.00
38267;BME280;24063;51.794;19.578;2023-01-04T04:30:57;99527.79;;;-0.54;100.00
38267;BME280;24063;51.794;19.578;2023-01-04T04:31:59;99529.02;;;-0.54;100.00
38267;BME280;24063;51.794;19.578;2023-01-04T04:33:01;99530.19;;;-0.55;100.00
38267;BME280;24063;51.794;19.578;2023-01-04T04:34:03;99527.60;;;-0.56;100.00
38267;BME280;24063;51.794;19.578;2023-01-04T04:35:05;99528.28;;;-0.57;100.00
38267;BME280;24063;51.794;19.578;2023-01-04T04:36:07;99528.96;;;-0.57;100.00
38267;BME280;24063;51.794;19.578;2023-01-04T04:37:09;99524.86;;;-0.58;100.00
38267;BME280;24063;51.794;19.578;2023-01-04T04:38:11;99521.52;;;-0.58;100.00
38267;BME280;24063;51.794;19.578;2023-01-04T04:39:14;99523.05;;;-0.59;100.00
38267;BME280;24063;51.794;19.578;2023-01-04T04:40:16;99522.72;;;-0.60;100.00
38267;BME280;24063;51.794;19.578;2023-01-04T04:41:37;99518.12;;;-0.58;100.00
38267;BME280;24063;51.794;19.578;2023-01-04T04:42:39;99515.48;;;-0.57;100.00
38267;BME280;24063;51.794;19.578;2023-01-04T04:43:41;99522.98;;;-0.56;100.00
38267;BME280;24063;51.794;19.578;2023-01-04T04:44:43;99518.81;;;-0.55;100.00
38267;BME280;24063;51.794;19.578;2023-01-04T04:45:45;99522.58;;;-0.55;100.00
38267;BME280;24063;51.794;19.578;2023-01-04T04:46:47;99521.65;;;-0.58;100.00
38267;BME280;24063;51.794;19.578;2023-01-04T04:47:49;99519.56;;;-0.60;100.00
38267;BME280;24063;51.794;19.578;2023-01-04T04:48:51;99518.67;;;-0.60;100.00
38267;BME280;24063;51.794;19.578;2023-01-04T04:49:53;99518.20;;;-0.59;100.00
38267;BME280;24063;51.794;19.578;2023-01-04T04:50:55;99517.33;;;-0.59;100.00
38267;BME280;24063;51.794;19.578;2023-01-04T04:51:57;99517.89;;;-0.60;100.00
38267;BME280;24063;51.794;19.578;2023-01-04T04:52:59;99515.71;;;-0.61;100.00
38267;BME280;24063;51.794;19.578;2023-01-04T04:54:01;99513.75;;;-0.63;100.00
38267;BME280;24063;51.794;19.578;2023-01-04T04:55:03;99518.00;;;-0.66;100.00
38267;BME280;24063;51.794;19.578;2023-01-04T04:56:07;99513.21;;;-0.69;100.00
38267;BME280;24063;51.794;19.578;2023-01-04T04:57:08;99514.15;;;-0.71;100.00
38267;BME280;24063;51.794;19.578;2023-01-04T04:58:10;99515.11;;;-0.73;100.00
38267;BME280;24063;51.794;19.578;2023-01-04T04:59:12;99519.27;;;-0.74;100.00
38267;BME280;24063;51.794;19.578;2023-01-04T05:00:15;99516.09;;;-0.76;100.00
38267;BME280;24063;51.794;19.578;2023-01-04T05:01:17;99513.34;;;-0.76;100.00
38267;BME280;24063;51.794;19.578;2023-01-04T05:02:19;99509.64;;;-0.78;100.00
38267;BME280;24063;51.794;19.578;2023-01-04T05:03:21;99515.34;;;-0.80;100.00
38267;BME280;24063;51.794;19.578;2023-01-04T05:04:24;99512.78;;;-0.81;100.00
38267;BME280;24063;51.794;19.578;2023-01-04T05:05:26;99512.75;;;-0.82;100.00
38267;BME280;24063;51.794;19.578;2023-01-04T05:06:28;99509.59;;;-0.85;100.00
38267;BME280;24063;51.794;19.578;2023-01-04T05:07:30;99504.95;;;-0.88;100.00
38267;BME280;24063;51.794;19.578;2023-01-04T05:08:32;99507.88;;;-0.90;100.00
38267;BME280;24063;51.794;19.578;2023-01-04T05:09:34;99505.16;;;-0.91;100.00
38267;BME280;24063;51.794;19.578;2023-01-04T05:10:37;99505.61;;;-0.92;100.00
38267;BME280;24063;51.794;19.578;2023-01-04T05:11:40;99504.42;;;-0.92;100.00
38267;BME280;24063;51.794;19.578;2023-01-04T05:13:01;99501.89;;;-0.92;100.00
38267;BME280;24063;51.794;19.578;2023-01-04T05:14:03;99498.48;;;-0.93;100.00
38267;BME280;24063;51.794;19.578;2023-01-04T05:15:05;99497.43;;;-0.95;100.00
38267;BME280;24063;51.794;19.578;2023-01-04T05:16:08;99495.10;;;-0.96;100.00
38267;BME280;24063;51.794;19.578;2023-01-04T05:17:10;99495.83;;;-0.96;100.00
38267;BME280;24063;51.794;19.578;2023-01-04T05:18:14;99497.48;;;-0.97;100.00
38267;BME280;24063;51.794;19.578;2023-01-04T05:19:17;99490.20;;;-0.98;100.00
38267;BME280;24063;51.794;19.578;2023-01-04T05:20:19;99490.36;;;-1.01;100.00
38267;BME280;24063;51.794;19.578;2023-01-04T05:21:20;99488.64;;;-1.01;100.00
38267;BME280;24063;51.794;19.578;2023-01-04T05:22:23;99490.07;;;-1.03;100.00
38267;BME280;24063;51.794;19.578;2023-01-04T05:23:24;99489.19;;;-1.05;100.00
38267;BME280;24063;51.794;19.578;2023-01-04T05:24:27;99488.47;;;-1.06;100.00
38267;BME280;24063;51.794;19.578;2023-01-04T05:25:29;99491.02;;;-1.07;100.00
38267;BME280;24063;51.794;19.578;2023-01-04T05:26:33;99491.27;;;-1.07;100.00
38267;BME280;24063;51.794;19.578;2023-01-04T05:27:35;99488.50;;;-1.09;100.00
38267;BME280;24063;51.794;19.578;2023-01-04T05:28:37;99487.98;;;-1.11;100.00
38267;BME280;24063;51.794;19.578;2023-01-04T05:29:39;99483.21;;;-1.12;100.00
38267;BME280;24063;51.794;19.578;2023-01-04T05:31:00;99481.88;;;-1.11;100.00
38267;BME280;24063;51.794;19.578;2023-01-04T05:32:02;99477.98;;;-1.13;100.00
38267;BME280;24063;51.794;19.578;2023-01-04T05:33:04;99474.98;;;-1.15;100.00
38267;BME280;24063;51.794;19.578;2023-01-04T05:34:06;99470.58;;;-1.17;100.00
38267;BME280;24063;51.794;19.578;2023-01-04T05:35:09;99472.86;;;-1.17;100.00
38267;BME280;24063;51.794;19.578;2023-01-04T05:36:11;99469.14;;;-1.16;100.00
38267;BME280;24063;51.794;19.578;2023-01-04T05:37:13;99476.08;;;-1.17;100.00
38267;BME280;24063;51.794;19.578;2023-01-04T05:38:15;99471.14;;;-1.17;100.00
38267;BME280;24063;51.794;19.578;2023-01-04T05:39:18;99475.39;;;-1.17;100.00
38267;BME280;24063;51.794;19.578;2023-01-04T05:40:21;99473.86;;;-1.17;100.00
38267;BME280;24063;51.794;19.578;2023-01-04T05:41:23;99470.21;;;-1.17;100.00
38267;BME280;24063;51.794;19.578;2023-01-04T05:42:44;99470.94;;;-1.15;100.00
38267;BME280;24063;51.794;19.578;2023-01-04T05:43:46;99469.20;;;-1.13;100.00
38267;BME280;24063;51.794;19.578;2023-01-04T05:44:47;99465.52;;;-1.14;100.00
38267;BME280;24063;51.794;19.578;2023-01-04T05:45:52;99467.65;;;-1.12;100.00
38267;BME280;24063;51.794;19.578;2023-01-04T05:46:55;99466.90;;;-1.12;100.00
38267;BME280;24063;51.794;19.578;2023-01-04T05:47:57;99466.90;;;-1.12;100.00
38267;BME280;24063;51.794;19.578;2023-01-04T05:48:59;99468.02;;;-1.11;100.00
38267;BME280;24063;51.794;19.578;2023-01-04T05:50:02;99463.46;;;-1.10;100.00
38267;BME280;24063;51.794;19.578;2023-01-04T05:51:04;99461.63;;;-1.08;100.00
38267;BME280;24063;51.794;19.578;2023-01-04T05:52:06;99462.09;;;-1.07;100.00
38267;BME280;24063;51.794;19.578;2023-01-04T05:53:08;99459.11;;;-1.06;100.00
38267;BME280;24063;51.794;19.578;2023-01-04T05:54:10;99455.94;;;-1.06;100.00
38267;BME280;24063;51.794;19.578;2023-01-04T05:55:12;99454.31;;;-1.06;100.00
38267;BME280;24063;51.794;19.578;2023-01-04T05:56:14;99454.37;;;-1.05;100.00
38267;BME280;24063;51.794;19.578;2023-01-04T05:57:16;99449.77;;;-1.06;100.00
38267;BME280;24063;51.794;19.578;2023-01-04T05:58:18;99449.34;;;-1.07;100.00
38267;BME280;24063;51.794;19.578;2023-01-04T05:59:20;99447.07;;;-1.09;100.00
38267;BME280;24063;51.794;19.578;2023-01-04T06:00:23;99441.91;;;-1.10;100.00
38267;BME280;24063;51.794;19.578;2023-01-04T06:01:25;99439.70;;;-1.12;100.00
38267;BME280;24063;51.794;19.578;2023-01-04T06:02:29;99437.29;;;-1.13;100.00
38267;BME280;24063;51.794;19.578;2023-01-04T06:03:31;99430.72;;;-1.16;100.00
38267;BME280;24063;51.794;19.578;2023-01-04T06:04:33;99430.61;;;-1.15;100.00
38267;BME280;24063;51.794;19.578;2023-01-04T06:05:35;99423.95;;;-1.16;100.00
38267;BME280;24063;51.794;19.578;2023-01-04T06:06:37;99427.41;;;-1.15;100.00
38267;BME280;24063;51.794;19.578;2023-01-04T06:07:39;99423.69;;;-1.16;100.00
38267;BME280;24063;51.794;19.578;2023-01-04T06:08:42;99424.48;;;-1.17;100.00
38267;BME280;24063;51.794;19.578;2023-01-04T06:09:44;99423.63;;;-1.17;100.00
38267;BME280;24063;51.794;19.578;2023-01-04T06:10:51;99422.90;;;-1.17;100.00
38267;BME280;24063;51.794;19.578;2023-01-04T06:11:54;99425.09;;;-1.18;100.00
38267;BME280;24063;51.794;19.578;2023-01-04T06:12:55;99421.67;;;-1.17;100.00
38267;BME280;24063;51.794;19.578;2023-01-04T06:13:57;99425.11;;;-1.16;100.00
38267;BME280;24063;51.794;19.578;2023-01-04T06:15:01;99420.76;;;-1.14;100.00
38267;BME280;24063;51.794;19.578;2023-01-04T06:16:03;99421.34;;;-1.12;100.00
38267;BME280;24063;51.794;19.578;2023-01-04T06:17:06;99417.86;;;-1.13;100.00
38267;BME280;24063;51.794;19.578;2023-01-04T06:18:08;99414.30;;;-1.11;100.00
38267;BME280;24063;51.794;19.578;2023-01-04T06:19:14;99413.75;;;-1.10;100.00
38267;BME280;24063;51.794;19.578;2023-01-04T06:20:16;99414.09;;;-1.10;100.00
38267;BME280;24063;51.794;19.578;2023-01-04T06:21:18;99418.33;;;-1.10;100.00
38267;BME280;24063;51.794;19.578;2023-01-04T06:22:20;99418.52;;;-1.10;100.00
38267;BME280;24063;51.794;19.578;2023-01-04T06:23:22;99422.64;;;-1.10;100.00
38267;BME280;24063;51.794;19.578;2023-01-04T06:24:24;99419.44;;;-1.12;100.00
38267;BME280;24063;51.794;19.578;2023-01-04T06:25:26;99419.37;;;-1.11;100.00
38267;BME280;24063;51.794;19.578;2023-01-04T06:26:28;99417.11;;;-1.10;100.00
38267;BME280;24063;51.794;19.578;2023-01-04T06:27:30;99413.61;;;-1.10;100.00
38267;BME280;24063;51.794;19.578;2023-01-04T06:28:31;99414.45;;;-1.10;100.00
38267;BME280;24063;51.794;19.578;2023-01-04T06:29:41;99411.49;;;-1.10;100.00
38267;BME280;24063;51.794;19.578;2023-01-04T06:30:43;99412.96;;;-1.10;100.00
38267;BME280;24063;51.794;19.578;2023-01-04T06:31:45;99412.05;;;-1.12;100.00
38267;BME280;24063;51.794;19.578;2023-01-04T06:32:47;99417.11;;;-1.11;100.00
38267;BME280;24063;51.794;19.578;2023-01-04T06:33:48;99415.45;;;-1.11;100.00
38267;BME280;24063;51.794;19.578;2023-01-04T06:34:51;99418.63;;;-1.11;100.00
38267;BME280;24063;51.794;19.578;2023-01-04T06:35:54;99419.77;;;-1.11;100.00
38267;BME280;24063;51.794;19.578;2023-01-04T06:36:56;99420.55;;;-1.10;100.00
38267;BME280;24063;51.794;19.578;2023-01-04T06:37:58;99422.37;;;-1.09;100.00
38267;BME280;24063;51.794;19.578;2023-01-04T06:39:00;99421.98;;;-1.08;100.00
38267;BME280;24063;51.794;19.578;2023-01-04T06:40:03;99422.32;;;-1.07;100.00